createdAt,value
2022-08-14T00:01:02.384Z,25.39
2022-08-14T00:03:37.636Z,25.45
2022-08-14T00:06:25.302Z,25.48
2022-08-14T00:08:53.146Z,25.50
2022-08-14T00:11:21.316Z,25.52
2022-08-14T00:13:52.930Z,25.46
2022-08-14T00:16:41.154Z,25.47
2022-08-14T00:19:19.300Z,25.47
2022-08-14T00:21:50.173Z,25.49
2022-08-14T00:24:28.384Z,25.43
2022-08-14T00:27:02.139Z,25.31
2022-08-14T00:29:39.986Z,25.12
2022-08-14T00:32:52.858Z,25.23
2022-08-14T00:34:54.680Z,25.23
2022-08-14T00:37:24.581Z,25.28
2022-08-14T00:39:51.822Z,25.22
2022-08-14T00:42:55.015Z,25.17
2022-08-14T00:45:11.371Z,25.08
2022-08-14T00:47:44.928Z,24.95
2022-08-14T00:50:17.662Z,25.00
2022-08-14T00:52:45.792Z,25.00
2022-08-14T00:55:18.666Z,24.94
2022-08-14T00:57:48.671Z,24.93
2022-08-14T01:00:34.436Z,24.90
2022-08-14T01:03:05.331Z,24.94
2022-08-14T01:05:51.069Z,24.92
2022-08-14T01:08:52.422Z,24.94
2022-08-14T01:11:08.134Z,24.85
2022-08-14T01:13:42.941Z,24.86
2022-08-14T01:16:14.777Z,24.79
2022-08-14T01:18:42.992Z,24.84
2022-08-14T01:21:25.720Z,24.79
2022-08-14T01:23:55.063Z,24.85
2022-08-14T01:26:35.068Z,24.85
2022-08-14T01:29:06.432Z,24.80
2022-08-14T01:31:37.147Z,24.88
2022-08-14T01:35:17.750Z,24.69
2022-08-14T01:36:55.919Z,24.81
2022-08-14T01:39:22.597Z,24.77
2022-08-14T01:41:50.043Z,24.78
2022-08-14T01:44:32.992Z,24.78
2022-08-14T01:47:05.908Z,24.68
2022-08-14T01:49:35.245Z,24.76
2022-08-14T01:52:08.930Z,24.72
2022-08-14T01:54:58.439Z,24.67
2022-08-14T01:57:26.480Z,24.75
2022-08-14T02:00:13.903Z,24.61
2022-08-14T02:02:43.530Z,24.52
2022-08-14T02:05:13.808Z,24.61
2022-08-14T02:07:53.284Z,24.67
2022-08-14T02:10:26.212Z,24.67
2022-08-14T02:12:56.992Z,24.65
2022-08-14T02:15:24.993Z,24.66
2022-08-14T02:17:53.012Z,24.57
2022-08-14T02:20:23.427Z,24.35
2022-08-14T02:22:54.526Z,24.53
2022-08-14T02:25:21.490Z,24.47
2022-08-14T02:28:24.232Z,24.47
2022-08-14T02:30:38.426Z,24.47
2022-08-14T02:33:06.257Z,24.43
2022-08-14T02:35:33.308Z,24.41
2022-08-14T02:38:11.601Z,24.43
2022-08-14T02:40:55.917Z,24.34
2022-08-14T02:43:24.390Z,24.42
2022-08-14T02:46:03.621Z,24.31
2022-08-14T02:49:03.203Z,24.32
2022-08-14T02:51:17.526Z,24.30
2022-08-14T02:53:46.761Z,24.34
2022-08-14T02:56:30.962Z,24.36
2022-08-14T02:59:05.611Z,24.31
2022-08-14T03:01:50.487Z,24.22
2022-08-14T03:04:21.272Z,24.28
2022-08-14T03:06:57.866Z,24.27
2022-08-14T03:09:41.886Z,24.29
2022-08-14T03:12:31.038Z,24.22
2022-08-14T03:14:59.972Z,24.17
2022-08-14T03:17:31.807Z,24.15
2022-08-14T03:20:11.117Z,24.17
2022-08-14T03:22:38.738Z,24.14
2022-08-14T03:25:13.093Z,24.17
2022-08-14T03:27:47.961Z,24.19
2022-08-14T03:30:24.915Z,24.13
2022-08-14T03:33:08.000Z,24.06
2022-08-14T03:35:39.648Z,24.09
2022-08-14T03:39:13.173Z,24.16
2022-08-14T03:40:56.791Z,24.03
2022-08-14T03:43:25.648Z,24.03
2022-08-14T03:46:01.106Z,23.92
2022-08-14T03:48:40.338Z,23.97
2022-08-14T03:51:08.604Z,23.93
2022-08-14T03:53:35.460Z,23.90
2022-08-14T03:56:04.587Z,23.90
2022-08-14T03:58:36.544Z,23.96
2022-08-14T04:01:03.846Z,23.91
2022-08-14T04:03:34.363Z,23.92
2022-08-14T04:06:06.104Z,23.90
2022-08-14T04:08:35.333Z,23.78
2022-08-14T04:11:08.052Z,23.81
2022-08-14T04:13:39.488Z,23.78
2022-08-14T04:16:12.676Z,23.70
2022-08-14T04:18:42.413Z,23.67
2022-08-14T04:21:11.309Z,23.76
2022-08-14T04:23:38.371Z,23.86
2022-08-14T04:26:15.066Z,23.82
2022-08-14T04:29:02.143Z,23.87
2022-08-14T04:33:00.015Z,23.93
2022-08-14T04:34:28.417Z,23.93
2022-08-14T04:36:56.513Z,23.96
2022-08-14T04:39:25.515Z,24.11
2022-08-14T04:41:57.188Z,24.09
2022-08-14T04:44:36.045Z,24.14
2022-08-14T04:47:05.566Z,24.23
2022-08-14T04:49:34.212Z,24.27
2022-08-14T04:52:15.565Z,24.51
2022-08-14T04:54:52.047Z,24.74
2022-08-14T04:57:23.057Z,24.92
2022-08-14T04:59:50.831Z,25.16
2022-08-14T05:02:17.686Z,25.92
2022-08-14T05:04:57.321Z,27.18
2022-08-14T05:07:53.927Z,28.03
2022-08-14T05:10:21.825Z,27.75
2022-08-14T05:13:13.760Z,27.51
2022-08-14T05:15:42.439Z,27.46
2022-08-14T05:18:17.365Z,27.51
2022-08-14T05:21:55.132Z,27.67
2022-08-14T05:23:46.699Z,28.30
2022-08-14T05:26:15.222Z,29.24
2022-08-14T05:28:44.637Z,30.04
2022-08-14T05:31:13.401Z,30.63
2022-08-14T05:33:54.635Z,30.88
2022-08-14T05:36:24.065Z,31.00
2022-08-14T05:38:53.219Z,31.26
2022-08-14T05:41:21.922Z,31.43
2022-08-14T05:43:51.212Z,31.58
2022-08-14T05:46:25.134Z,31.90
2022-08-14T05:48:54.054Z,31.70
2022-08-14T05:51:21.799Z,31.82
2022-08-14T05:54:01.694Z,31.98
2022-08-14T05:56:42.268Z,32.06
2022-08-14T05:59:12.156Z,31.91
2022-08-14T06:01:39.136Z,31.91
2022-08-14T06:04:05.835Z,32.05
2022-08-14T06:06:36.585Z,32.22
2022-08-14T06:09:05.044Z,32.43
2022-08-14T06:11:31.705Z,32.41
2022-08-14T06:13:59.389Z,32.57
2022-08-14T06:16:27.429Z,32.35
2022-08-14T06:18:55.749Z,31.84
2022-08-14T06:21:26.861Z,31.76
2022-08-14T06:23:56.008Z,31.71
2022-08-14T06:26:30.185Z,31.54
2022-08-14T06:29:01.262Z,31.57
2022-08-14T06:31:32.293Z,31.98
2022-08-14T06:35:02.548Z,32.59
2022-08-14T06:36:46.580Z,32.99
2022-08-14T06:39:13.471Z,33.32
2022-08-14T06:41:58.198Z,33.48
2022-08-14T06:44:30.624Z,33.59
2022-08-14T06:47:35.822Z,34.01
2022-08-14T07:00:54.065Z,34.57
2022-08-14T07:05:38.486Z,34.23
2022-08-14T07:07:21.616Z,34.49
2022-08-14T07:10:16.766Z,34.96
2022-08-14T07:13:00.987Z,34.79
2022-08-14T07:15:29.308Z,34.88
2022-08-14T07:17:59.733Z,34.90
2022-08-14T07:20:31.242Z,35.00
2022-08-14T07:23:08.481Z,34.97
2022-08-14T07:25:38.431Z,35.41
2022-08-14T07:31:25.846Z,35.35
2022-08-14T07:34:36.495Z,34.78
2022-08-14T07:37:08.267Z,35.13
2022-08-14T07:39:38.959Z,35.00
2022-08-14T07:42:10.456Z,34.40
2022-08-14T07:44:46.233Z,34.63
2022-08-14T07:47:15.796Z,34.85
2022-08-14T07:49:55.419Z,35.19
2022-08-14T07:52:30.668Z,35.35
2022-08-14T07:55:00.901Z,35.08
2022-08-14T07:57:27.967Z,35.35
2022-08-14T07:59:54.886Z,35.43
2022-08-14T08:02:22.514Z,35.54
2022-08-14T08:04:54.698Z,35.49
2022-08-14T08:07:22.731Z,35.37
2022-08-14T08:09:53.452Z,35.28
2022-08-14T08:12:30.106Z,35.53
2022-08-14T08:15:02.800Z,35.31
2022-08-14T08:17:34.533Z,35.56
2022-08-14T08:20:02.287Z,35.47
2022-08-14T08:22:32.564Z,35.70
2022-08-14T08:24:59.484Z,35.65
2022-08-14T08:27:29.505Z,35.64
2022-08-14T08:30:10.150Z,35.87
2022-08-14T08:32:39.780Z,35.78
2022-08-14T08:35:16.770Z,35.94
2022-08-14T08:37:45.003Z,36.15
2022-08-14T08:40:22.572Z,35.95
2022-08-14T08:42:59.964Z,36.22
2022-08-14T08:45:28.620Z,36.26
2022-08-14T08:47:57.618Z,36.06
2022-08-14T08:50:31.658Z,36.01
2022-08-14T08:53:02.032Z,36.10
2022-08-14T08:55:32.275Z,35.38
2022-08-14T08:58:04.316Z,35.60
2022-08-14T09:00:36.527Z,36.02
2022-08-14T09:03:05.848Z,36.01
2022-08-14T09:05:35.699Z,35.87
2022-08-14T09:08:31.746Z,35.74
2022-08-14T09:11:01.377Z,36.15
2022-08-14T09:13:30.894Z,36.21
2022-08-14T09:15:59.948Z,35.72
2022-08-14T09:18:26.782Z,35.04
2022-08-14T09:20:58.911Z,35.63
2022-08-14T09:23:34.694Z,35.75
2022-08-14T09:26:20.712Z,36.02
2022-08-14T09:28:52.283Z,36.15
2022-08-14T09:31:20.047Z,36.21
2022-08-14T09:34:19.783Z,36.11
2022-08-14T09:37:13.096Z,36.14
2022-08-14T09:39:56.567Z,35.60
2022-08-14T09:42:49.930Z,35.41
2022-08-14T09:45:20.650Z,35.72
2022-08-14T09:47:52.170Z,35.83
2022-08-14T09:50:27.413Z,35.14
2022-08-14T09:52:58.071Z,34.99
2022-08-14T09:55:28.251Z,34.85
2022-08-14T09:58:19.476Z,34.84
2022-08-14T10:00:52.799Z,34.67
2022-08-14T10:03:28.779Z,34.45
2022-08-14T10:06:08.910Z,34.47
2022-08-14T10:08:44.562Z,34.53
2022-08-14T10:11:23.406Z,34.35
2022-08-14T10:13:53.806Z,34.70
2022-08-14T10:16:43.696Z,34.28
2022-08-14T10:19:15.869Z,33.76
2022-08-14T10:23:11.083Z,34.08
2022-08-14T10:24:55.245Z,33.83
2022-08-14T10:27:25.089Z,34.47
2022-08-14T10:29:58.241Z,34.33
2022-08-14T10:32:29.272Z,34.94
2022-08-14T10:35:13.421Z,35.10
2022-08-14T10:37:49.371Z,35.11
2022-08-14T10:40:37.476Z,35.05
2022-08-14T10:43:31.751Z,35.16
2022-08-14T10:46:59.480Z,35.00
2022-08-14T10:49:05.407Z,35.03
2022-08-14T10:51:46.949Z,35.02
2022-08-14T10:54:17.132Z,35.28
2022-08-14T10:57:20.992Z,34.90
2022-08-14T11:00:35.608Z,34.62
2022-08-14T11:03:13.069Z,34.39
2022-08-14T11:05:55.560Z,34.22
2022-08-14T11:09:06.471Z,33.56
2022-08-14T11:12:36.668Z,34.41
2022-08-14T11:18:55.954Z,35.72
2022-08-14T11:25:11.738Z,36.20
2022-08-14T11:28:06.928Z,36.20
2022-08-14T14:18:29.568Z,38.36
2022-08-14T14:35:38.625Z,35.41
2022-08-14T14:38:42.988Z,35.80
2022-08-14T14:53:12.480Z,35.83
2022-08-14T14:56:50.166Z,35.59
2022-08-14T15:03:46.090Z,35.71
2022-08-14T15:20:51.769Z,35.59
2022-08-14T15:24:26.579Z,36.27
2022-08-14T15:27:33.795Z,36.58
2022-08-14T15:37:12.607Z,36.01
2022-08-14T15:39:50.343Z,36.19
2022-08-14T15:42:27.912Z,35.64
2022-08-14T15:45:03.979Z,35.81
2022-08-14T15:47:36.176Z,35.94
2022-08-14T15:53:46.605Z,34.83
2022-08-14T15:56:43.144Z,34.72
2022-08-14T15:59:13.348Z,34.51
2022-08-14T16:02:11.972Z,34.75
2022-08-14T16:04:55.650Z,34.94
2022-08-14T16:07:26.926Z,34.45
2022-08-14T16:10:27.243Z,34.74
2022-08-14T16:12:53.057Z,34.81
2022-08-14T16:15:30.616Z,34.82
2022-08-14T16:22:01.845Z,34.92
2022-08-14T16:25:02.555Z,34.78
2022-08-14T16:31:19.271Z,35.35
2022-08-14T16:40:05.448Z,35.67
2022-08-14T17:02:56.699Z,36.11
2022-08-14T17:05:50.724Z,36.14
2022-08-14T17:08:33.396Z,36.01
2022-08-14T17:11:12.731Z,35.24
2022-08-14T17:14:00.902Z,35.22
2022-08-14T17:16:35.699Z,34.70
2022-08-14T17:19:13.842Z,34.77
2022-08-14T17:21:49.627Z,34.83
2022-08-14T17:24:57.483Z,34.59
2022-08-14T17:27:10.553Z,34.07
2022-08-14T17:29:56.087Z,34.07
2022-08-14T17:32:29.896Z,33.76
2022-08-14T17:35:25.981Z,33.74
2022-08-14T17:37:55.582Z,33.69
2022-08-14T17:40:23.388Z,33.72
2022-08-14T17:43:02.499Z,33.56
2022-08-14T17:45:46.896Z,33.31
2022-08-14T17:49:10.710Z,32.65
2022-08-14T17:51:30.243Z,32.57
2022-08-14T17:54:02.628Z,32.78
2022-08-14T17:56:36.220Z,32.81
2022-08-14T17:59:06.104Z,32.46
2022-08-14T18:01:37.399Z,32.35
2022-08-14T18:04:24.443Z,32.20
2022-08-14T18:07:16.343Z,32.15
2022-08-14T18:09:56.269Z,32.04
2022-08-14T18:12:31.872Z,31.75
2022-08-14T18:15:16.431Z,31.62
2022-08-14T18:17:50.586Z,31.43
2022-08-14T18:21:23.511Z,30.99
2022-08-14T18:23:10.568Z,31.16
2022-08-14T18:25:49.690Z,31.18
2022-08-14T18:28:48.309Z,31.11
2022-08-14T18:31:44.195Z,30.89
2022-08-14T18:34:31.774Z,30.84
2022-08-14T18:37:17.006Z,30.77
2022-08-14T18:40:01.417Z,30.72
2022-08-14T18:42:44.610Z,30.74
2022-08-14T18:45:19.051Z,30.54
2022-08-14T18:48:33.446Z,30.51
2022-08-14T18:51:12.759Z,30.75
2022-08-14T18:53:56.287Z,30.31
2022-08-14T18:57:05.609Z,30.26
2022-08-14T18:59:44.293Z,30.27
2022-08-14T19:02:43.430Z,30.21
2022-08-14T19:05:14.297Z,30.13
2022-08-14T19:07:41.456Z,30.05
2022-08-14T19:10:09.564Z,29.88
2022-08-14T19:13:04.500Z,29.83
2022-08-14T19:15:36.494Z,29.79
2022-08-14T19:18:28.226Z,29.49
2022-08-14T19:20:58.217Z,29.39
2022-08-14T19:23:42.157Z,29.37
2022-08-14T19:26:36.174Z,29.40
2022-08-14T19:29:26.129Z,29.33
2022-08-14T19:32:25.845Z,29.21
2022-08-14T19:34:59.947Z,29.33
2022-08-14T19:37:52.132Z,29.26
2022-08-14T19:40:30.188Z,29.17
2022-08-14T19:42:58.379Z,29.11
2022-08-14T19:45:27.225Z,29.12
2022-08-14T19:47:54.103Z,28.97
2022-08-14T19:50:38.783Z,29.03
2022-08-14T19:53:11.040Z,28.98
2022-08-14T19:55:39.630Z,28.96
2022-08-14T19:58:12.740Z,28.99
2022-08-14T20:00:51.689Z,28.93
2022-08-14T20:03:23.303Z,28.85
2022-08-14T20:05:58.903Z,29.00
2022-08-14T20:10:58.562Z,29.02
2022-08-14T20:12:00.677Z,29.06
2022-08-14T20:14:20.684Z,29.06
2022-08-14T20:16:59.389Z,28.91
2022-08-14T20:19:30.338Z,28.98
2022-08-14T20:22:04.670Z,29.00
2022-08-14T20:24:47.036Z,29.00
2022-08-14T20:27:34.196Z,28.94
2022-08-14T20:30:29.929Z,28.87
2022-08-14T20:33:03.371Z,28.77
2022-08-14T20:35:36.520Z,28.71
2022-08-14T20:38:29.116Z,28.57
2022-08-14T20:41:00.333Z,28.56
2022-08-14T20:43:29.878Z,28.50
2022-08-14T20:46:12.365Z,28.35
2022-08-14T20:48:50.798Z,28.26
2022-08-14T20:51:20.696Z,28.27
2022-08-14T20:54:00.815Z,28.26
2022-08-14T20:56:29.066Z,28.19
2022-08-14T20:58:57.514Z,28.15
2022-08-14T21:01:34.890Z,28.14
2022-08-14T21:04:04.883Z,28.19
2022-08-14T21:07:23.245Z,28.12
2022-08-14T21:10:04.496Z,28.08
2022-08-14T21:12:33.995Z,28.08
2022-08-14T21:14:58.549Z,28.12
2022-08-14T21:17:26.529Z,28.12
2022-08-14T21:19:53.292Z,28.07
2022-08-14T21:22:19.882Z,28.07
2022-08-14T21:24:47.617Z,28.12
2022-08-14T21:27:20.344Z,28.09
2022-08-14T21:29:56.106Z,28.09
2022-08-14T21:32:26.050Z,28.04
2022-08-14T21:35:01.009Z,27.99
2022-08-14T21:37:29.895Z,27.89
2022-08-14T21:39:58.392Z,27.92
2022-08-14T21:42:27.878Z,27.75
2022-08-14T21:44:54.703Z,27.67
2022-08-14T21:47:23.639Z,27.64
2022-08-14T21:49:51.933Z,27.58
2022-08-14T21:52:49.029Z,27.53
2022-08-14T21:55:10.381Z,27.46
2022-08-14T21:58:46.358Z,27.40
2022-08-14T22:00:35.945Z,27.38
2022-08-14T22:03:05.792Z,27.26
2022-08-14T22:05:35.127Z,27.27
2022-08-14T22:08:03.416Z,27.15
2022-08-14T22:10:33.939Z,27.22
2022-08-14T22:13:01.789Z,27.12
2022-08-14T22:15:30.081Z,27.15
2022-08-14T22:17:57.445Z,27.09
2022-08-14T22:20:25.876Z,26.95
2022-08-14T22:22:56.207Z,26.92
2022-08-14T22:25:33.486Z,26.90
2022-08-14T22:28:04.141Z,26.79
2022-08-14T22:30:31.436Z,26.76
2022-08-14T22:33:00.200Z,26.66
2022-08-14T22:35:29.274Z,26.65
2022-08-14T22:38:01.770Z,26.57
2022-08-14T22:40:56.685Z,26.53
2022-08-14T22:43:33.567Z,26.53
2022-08-14T22:46:02.605Z,26.44
2022-08-14T22:48:29.603Z,26.35
2022-08-14T22:50:56.297Z,26.35
2022-08-14T22:53:29.322Z,26.36
2022-08-14T22:55:56.542Z,26.27
2022-08-14T22:58:31.393Z,26.14
2022-08-14T23:01:02.136Z,26.15
2022-08-14T23:03:29.392Z,26.08
2022-08-14T23:05:56.029Z,26.12
2022-08-14T23:09:01.896Z,26.10
2022-08-14T23:11:11.361Z,25.98
2022-08-14T23:13:40.430Z,25.99
2022-08-14T23:16:20.095Z,25.89
2022-08-14T23:18:47.961Z,25.91
2022-08-14T23:21:21.042Z,25.86
2022-08-14T23:23:55.093Z,25.87
2022-08-14T23:26:48.104Z,25.84
2022-08-14T23:29:11.372Z,25.83
2022-08-14T23:31:38.473Z,25.82
2022-08-14T23:34:09.508Z,25.75
2022-08-14T23:36:54.040Z,25.70
2022-08-14T23:39:24.603Z,25.71
2022-08-14T23:42:03.893Z,25.67
2022-08-14T23:44:35.349Z,25.70
2022-08-14T23:47:05.769Z,25.59
2022-08-14T23:49:56.551Z,25.44
2022-08-14T23:52:50.400Z,25.57
2022-08-14T23:55:13.012Z,25.50
2022-08-14T23:57:44.030Z,25.47
